Time;durP1;ratioP1;P1;durP2;ratioP2;P2;SDS_P1;SDS_P2;PMS_P1;PMS_P2;Temp;Humidity;BMP_temperature;BMP_pressure;BME280_temperature;BME280_humidity;BME280_pressure;Samples;Min_cycle;Max_cycle;Signal;HPM_P1;HPM_P2
2022/02/11 00:01:11;;;;;;;;;;;;;;;;;;5093701;28;19962;-52
2022/02/11 00:06:42;;;;;;;;;;;;;;;;;;5093761;28;19999;-54
2022/02/11 00:09:07;;;;;;;;;;;;;;;;;;5092969;28;19904;-56
2022/02/11 00:11:33;;;;;;;;;;;;;;;;;;5093514;28;19923;-50
2022/02/11 00:13:59;;;;;;;;;;;;;;;;;;5093741;28;19908;-53
2022/02/11 00:16:25;;;;;;;;;;;;;;;;;;5093861;28;20040;-55
2022/02/11 00:18:51;;;;;;;;;;;;;;;;;;5092980;28;20210;-55
2022/02/11 00:21:17;;;;;;;;;;;;;;;;;;5093215;28;19904;-53
2022/02/11 00:23:43;;;;;;;;;;;;;;;;;;5093811;28;19914;-55
2022/02/11 00:26:09;;;;;;;;;;;;;;;;;;5093370;28;19904;-53
2022/02/11 00:34:04;;;;;;;;;;;;;;;;;;5093260;28;19915;-53
2022/02/11 00:36:39;;;;;;;;;;;;;;;;;;5093130;28;19908;-54
2022/02/11 01:02:09;;;;;;;;;;;;;;;;;;5092937;28;20312;-54
2022/02/11 01:04:08;;;;;;;;;;;;;;;;;;5092757;28;19915;-56
2022/02/11 01:06:34;;;;;;;;;;;;;;;;;;5092782;28;19904;-56
2022/02/11 01:09:00;;;;;;;;;;;;;;;;;;5092082;28;20353;-55
2022/02/11 01:13:54;;;;;;;;;;;;;;;;;;5092561;28;20007;-53
2022/02/11 01:16:27;;;;;;;;;;;;;;;;;;5092477;28;20368;-54
2022/02/11 01:19:13;;;;;;;;;;;;;;;;;;5092078;28;20045;-56
2022/02/11 01:21:50;;;;;;;;;;;;;;;;;;5092546;28;20325;-56
2022/02/11 01:24:37;;;;;;;;;;;;;;;;;;5092508;28;20277;-55
2022/02/11 01:35:27;;;;;;;;;;;;;;;;;;5096442;28;19934;-56
2022/02/11 01:38:05;;;;;;;;;;;;;;;;;;5096201;28;19904;-56
2022/02/11 01:53:41;;;;;;;;;;;;;;;;;;5096300;28;20384;-56
2022/02/11 02:22:59;;;;;;;;;;;;;;;;;;5095715;28;19911;-55
2022/02/11 02:28:53;;;;;;;;;;;;;;;;;;5095349;28;19904;-56
2022/02/11 02:33:54;;;;;;;;;;;;;;;;;;5095721;28;19911;-52
2022/02/11 02:57:50;;;;;;;;;;;;;;;;;;5095319;28;19958;-54
2022/02/11 03:00:50;;;;;;;;;;;;;;;;;;5094970;28;20285;-56
2022/02/11 04:59:59;;;;;;;;;;;;;;;;;;5092216;28;20049;-51
2022/02/11 05:02:30;;;;;;;;;;;;;;;;;;5092961;28;19904;-51
2022/02/11 05:04:56;;;;;;;;;;;;;;;;;;5083677;28;19915;-56
2022/02/11 05:07:22;;;;;;;;;;;;;;;;;;5092686;28;19904;-52
2022/02/11 05:09:48;;;;;;;;;;;;;;;;;;5092363;28;19912;-50
2022/02/11 05:12:14;;;;;;;;;;;;;;;;;;5092720;28;19922;-52
2022/02/11 05:14:39;;;;;;;;;;;;;;;;;;5092960;28;19908;-55
2022/02/11 05:17:05;;;;;;;;;;;;;;;;;;5092101;28;19995;-53
2022/02/11 05:19:31;;;;;;;;;;;;;;;;;;5091828;28;19961;-53
2022/02/11 05:21:57;;;;;;;;;;;;;;;;;;5092509;28;19994;-50
2022/02/11 05:24:23;;;;;;;;;;;;;;;;;;5091184;28;19912;-54
2022/02/11 05:26:49;;;;;;;;;;;;;;;;;;5076069;28;19908;-54
2022/02/11 05:29:15;;;;;;;;;;;;;;;;;;5071724;28;19963;-51
2022/02/11 05:31:40;;;;;;;;;;;;;;;;;;5080631;28;20293;-53
2022/02/11 05:34:06;;;;;;;;;;;;;;;;;;5092509;28;19904;-53
2022/02/11 05:36:32;;;;;;;;;;;;;;;;;;5092273;28;20269;-55
2022/02/11 05:38:58;;;;;;;;;;;;;;;;;;5087687;28;19950;-54
2022/02/11 05:41:24;;;;;;;;;;;;;;;;;;5081784;28;19915;-51
2022/02/11 05:43:50;;;;;;;;;;;;;;;;;;5092319;28;20312;-55
2022/02/11 05:46:16;;;;;;;;;;;;;;;;;;5087263;28;19934;-54
2022/02/11 05:48:43;;;;;;;;;;;;;;;;;;5078790;28;20372;-54
2022/02/11 05:51:08;;;;;;;;;;;;;;;;;;5073910;28;19912;-55
2022/02/11 05:53:34;;;;;;;;;;;;;;;;;;5086128;28;19998;-53
2022/02/11 05:56:00;;;;;;;;;;;;;;;;;;5082046;28;19908;-53
2022/02/11 05:58:26;;;;;;;;;;;;;;;;;;5079805;28;19914;-54
2022/02/11 06:00:53;;;;;;;;;;;;;;;;;;5076496;28;19930;-55
2022/02/11 06:03:18;;;;;;;;;;;;;;;;;;5081561;28;19908;-53
2022/02/11 06:05:44;;;;;;;;;;;;;;;;;;5083468;28;19961;-52
2022/02/11 06:08:11;;;;;;;;;;;;;;;;;;5085769;28;19908;-53
2022/02/11 06:10:37;;;;;;;;;;;;;;;;;;5088894;28;19911;-53
2022/02/11 06:13:03;;;;;;;;;;;;;;;;;;5085422;28;19921;-55
2022/02/11 06:15:29;;;;;;;;;;;;;;;;;;5072904;28;20350;-53
2022/02/11 06:17:55;;;;;;;;;;;;;;;;;;5080959;28;20022;-56
2022/02/11 06:20:27;;;;;;;;;;;;;;;;;;5094319;28;19904;-55
2022/02/11 06:22:53;;;;;;;;;;;;;;;;;;5094486;28;20003;-55
2022/02/11 06:25:19;;;;;;;;;;;;;;;;;;5096141;28;19943;-54
2022/02/11 06:27:45;;;;;;;;;;;;;;;;;;5095928;28;19911;-54
2022/02/11 06:30:11;;;;;;;;;;;;;;;;;;5095853;28;20338;-54
2022/02/11 06:32:37;;;;;;;;;;;;;;;;;;5095751;28;19941;-55
2022/02/11 06:35:03;;;;;;;;;;;;;;;;;;5081334;28;20328;-52
2022/02/11 06:37:28;;;;;;;;;;;;;;;;;;5075488;28;19912;-54
2022/02/11 06:39:54;;;;;;;;;;;;;;;;;;5074892;28;19904;-54
2022/02/11 06:42:20;;;;;;;;;;;;;;;;;;5075184;28;19904;-53
2022/02/11 06:44:46;;;;;;;;;;;;;;;;;;5075429;28;19950;-53
2022/02/11 06:47:12;;;;;;;;;;;;;;;;;;5075134;28;19904;-53
2022/02/11 06:49:38;;;;;;;;;;;;;;;;;;5088434;28;20022;-56
2022/02/11 06:52:04;;;;;;;;;;;;;;;;;;5095759;28;19937;-53
2022/02/11 06:54:30;;;;;;;;;;;;;;;;;;5109569;28;20272;-52
2022/02/11 06:56:55;;;;;;;;;;;;;;;;;;5115980;28;19903;-52
2022/02/11 06:59:21;;;;;;;;;;;;;;;;;;5115001;28;19951;-56
2022/02/11 07:01:47;;;;;;;;;;;;;;;;;;5110104;28;19919;-55
2022/02/11 07:04:13;;;;;;;;;;;;;;;;;;5094981;28;19915;-49
2022/02/11 07:06:39;;;;;;;;;;;;;;;;;;5095492;28;19904;-51
2022/02/11 07:09:05;;;;;;;;;;;;;;;;;;5094680;28;19920;-56
2022/02/11 07:11:31;;;;;;;;;;;;;;;;;;5094983;28;19916;-53
2022/02/11 07:13:56;;;;;;;;;;;;;;;;;;5095010;28;19911;-53
2022/02/11 07:16:22;;;;;;;;;;;;;;;;;;5087452;28;20368;-55
2022/02/11 07:18:48;;;;;;;;;;;;;;;;;;5074157;28;19915;-53
2022/02/11 07:21:14;;;;;;;;;;;;;;;;;;5074951;28;19904;-53
2022/02/11 07:23:40;;;;;;;;;;;;;;;;;;5075266;28;19912;-55
2022/02/11 07:26:06;;;;;;;;;;;;;;;;;;5080838;28;19908;-59
2022/02/11 07:28:32;;;;;;;;;;;;;;;;;;5094015;28;19947;-55
2022/02/11 07:30:59;;;;;;;;;;;;;;;;;;5091067;28;19920;-54
2022/02/11 07:33:25;;;;;;;;;;;;;;;;;;5075253;28;20021;-55
2022/02/11 07:35:51;;;;;;;;;;;;;;;;;;5083065;28;19951;-54
2022/02/11 07:38:17;;;;;;;;;;;;;;;;;;5094041;28;19927;-56
2022/02/11 07:40:43;;;;;;;;;;;;;;;;;;5094465;28;19904;-54
2022/02/11 07:43:08;;;;;;;;;;;;;;;;;;5094398;28;19911;-54
2022/02/11 07:45:36;;;;;;;;;;;;;;;;;;5089962;28;19954;-55
2022/02/11 07:48:03;;;;;;;;;;;;;;;;;;5073547;28;20798;-55
2022/02/11 07:50:29;;;;;;;;;;;;;;;;;;5073929;28;20010;-53
2022/02/11 07:52:56;;;;;;;;;;;;;;;;;;5075096;28;19966;-55
2022/02/11 07:55:22;;;;;;;;;;;;;;;;;;5114603;28;20314;-55
2022/02/11 07:57:48;;;;;;;;;;;;;;;;;;5113974;28;19929;-54
2022/02/11 08:00:14;;;;;;;;;;;;;;;;;;5105673;28;19953;-51
2022/02/11 08:02:40;;;;;;;;;;;;;;;;;;5094238;28;19934;-55
2022/02/11 08:05:06;;;;;;;;;;;;;;;;;;5093832;28;19908;-53
2022/02/11 08:07:32;;;;;;;;;;;;;;;;;;5094403;28;19911;-55
2022/02/11 08:09:58;;;;;;;;;;;;;;;;;;5093055;28;19915;-56
2022/02/11 08:12:24;;;;;;;;;;;;;;;;;;5093839;28;19908;-51
2022/02/11 08:14:50;;;;;;;;;;;;;;;;;;5084288;28;19919;-54
2022/02/11 08:17:16;;;;;;;;;;;;;;;;;;5073759;28;19926;-54
2022/02/11 08:19:41;;;;;;;;;;;;;;;;;;5072678;28;19904;-54
2022/02/11 08:22:07;;;;;;;;;;;;;;;;;;5073563;28;19927;-55
2022/02/11 08:24:33;;;;;;;;;;;;;;;;;;5073501;28;20030;-52
2022/02/11 08:26:59;;;;;;;;;;;;;;;;;;5073439;28;19911;-54
2022/02/11 08:29:26;;;;;;;;;;;;;;;;;;5080112;28;19908;-52
2022/02/11 08:31:54;;;;;;;;;;;;;;;;;;5093445;28;19977;-55
2022/02/11 08:34:21;;;;;;;;;;;;;;;;;;5093451;28;19912;-52
2022/02/11 08:36:47;;;;;;;;;;;;;;;;;;5093493;28;19907;-51
2022/02/11 08:39:13;;;;;;;;;;;;;;;;;;5092760;28;19904;-52
2022/02/11 08:41:39;;;;;;;;;;;;;;;;;;5093066;28;20383;-51
2022/02/11 08:44:05;;;;;;;;;;;;;;;;;;5080623;28;19961;-54
2022/02/11 08:46:31;;;;;;;;;;;;;;;;;;5073085;28;20258;-56
2022/02/11 08:48:57;;;;;;;;;;;;;;;;;;5072424;28;20004;-57
2022/02/11 08:51:23;;;;;;;;;;;;;;;;;;5073095;28;19950;-52
2022/02/11 08:53:51;;;;;;;;;;;;;;;;;;5089332;28;19946;-57
2022/02/11 08:56:17;;;;;;;;;;;;;;;;;;5109928;28;20003;-57
2022/02/11 08:58:43;;;;;;;;;;;;;;;;;;5092282;28;19954;-57
2022/02/11 09:01:09;;;;;;;;;;;;;;;;;;5093082;28;19904;-55
2022/02/11 09:03:35;;;;;;;;;;;;;;;;;;5093165;28;20426;-55
2022/02/11 09:06:01;;;;;;;;;;;;;;;;;;5092899;28;19934;-57
2022/02/11 09:08:26;;;;;;;;;;;;;;;;;;5092397;28;19904;-57
2022/02/11 09:10:52;;;;;;;;;;;;;;;;;;5092056;28;19947;-55
2022/02/11 09:13:18;;;;;;;;;;;;;;;;;;5092769;28;20338;-55
2022/02/11 09:15:48;;;;;;;;;;;;;;;;;;5092784;28;20011;-55
2022/02/11 09:18:14;;;;;;;;;;;;;;;;;;5092327;28;20334;-55
2022/02/11 09:20:40;;;;;;;;;;;;;;;;;;5092778;28;19946;-53
2022/02/11 09:23:06;;;;;;;;;;;;;;;;;;5092631;28;19982;-52
2022/02/11 09:25:33;;;;;;;;;;;;;;;;;;5084204;28;19944;-56
2022/02/11 09:27:59;;;;;;;;;;;;;;;;;;5075445;28;19912;-53
2022/02/11 09:30:26;;;;;;;;;;;;;;;;;;5092809;28;19930;-55
2022/02/11 09:32:52;;;;;;;;;;;;;;;;;;5092626;28;19914;-54
2022/02/11 09:35:18;;;;;;;;;;;;;;;;;;5079179;28;20328;-53
2022/02/11 09:37:44;;;;;;;;;;;;;;;;;;5092735;28;19904;-54
2022/02/11 09:40:10;;;;;;;;;;;;;;;;;;5091998;28;20268;-54
2022/02/11 09:42:36;;;;;;;;;;;;;;;;;;5089583;28;20037;-53
2022/02/11 09:45:02;;;;;;;;;;;;;;;;;;5086163;28;20361;-55
2022/02/11 09:47:28;;;;;;;;;;;;;;;;;;5083772;28;19908;-55
2022/02/11 09:49:53;;;;;;;;;;;;;;;;;;5077933;28;19926;-53
2022/02/11 09:52:19;;;;;;;;;;;;;;;;;;5083448;28;19919;-53
2022/02/11 09:54:45;;;;;;;;;;;;;;;;;;5090287;28;20008;-53
2022/02/11 09:57:13;;;;;;;;;;;;;;;;;;5078447;28;19908;-55
2022/02/11 09:59:39;;;;;;;;;;;;;;;;;;5076324;28;20303;-51
2022/02/11 10:02:05;;;;;;;;;;;;;;;;;;5085245;28;19953;-54
2022/02/11 10:04:32;;;;;;;;;;;;;;;;;;5095476;28;19961;-53
2022/02/11 10:06:58;;;;;;;;;;;;;;;;;;5096200;28;20319;-54
2022/02/11 10:09:24;;;;;;;;;;;;;;;;;;5093248;28;19904;-54
2022/02/11 10:11:50;;;;;;;;;;;;;;;;;;5079350;28;19920;-50
2022/02/11 10:14:15;;;;;;;;;;;;;;;;;;5087315;28;19909;-55
2022/02/11 10:16:41;;;;;;;;;;;;;;;;;;5075930;28;19916;-56
2022/02/11 10:19:07;;;;;;;;;;;;;;;;;;5075125;28;19913;-55
2022/02/11 10:21:34;;;;;;;;;;;;;;;;;;5076110;28;20385;-52
2022/02/11 10:24:00;;;;;;;;;;;;;;;;;;5075739;28;19916;-56
2022/02/11 10:26:27;;;;;;;;;;;;;;;;;;5074241;28;20409;-54
2022/02/11 10:28:53;;;;;;;;;;;;;;;;;;5082917;28;19908;-57
2022/02/11 10:31:20;;;;;;;;;;;;;;;;;;5095989;28;19931;-55
2022/02/11 10:33:45;;;;;;;;;;;;;;;;;;5095069;28;19965;-56
2022/02/11 10:36:11;;;;;;;;;;;;;;;;;;5095471;28;19920;-54
2022/02/11 10:38:37;;;;;;;;;;;;;;;;;;5095137;28;19999;-53
2022/02/11 10:41:03;;;;;;;;;;;;;;;;;;5093805;28;19937;-55
2022/02/11 10:43:31;;;;;;;;;;;;;;;;;;5084613;28;20349;-55
2022/02/11 10:46:04;;;;;;;;;;;;;;;;;;5094099;28;20342;-56
2022/02/11 10:48:34;;;;;;;;;;;;;;;;;;5081625;28;19995;-56
2022/02/11 10:51:01;;;;;;;;;;;;;;;;;;5087419;28;19912;-55
2022/02/11 10:53:28;;;;;;;;;;;;;;;;;;5095963;28;19915;-53
2022/02/11 10:55:54;;;;;;;;;;;;;;;;;;5115850;28;19942;-52
2022/02/11 10:58:20;;;;;;;;;;;;;;;;;;5087056;28;19911;-55
2022/02/11 11:00:46;;;;;;;;;;;;;;;;;;5088142;28;19974;-55
2022/02/11 11:03:12;;;;;;;;;;;;;;;;;;5080564;28;19915;-56
2022/02/11 11:05:38;;;;;;;;;;;;;;;;;;5085193;28;20003;-56
2022/02/11 11:08:04;;;;;;;;;;;;;;;;;;5085965;28;19993;-55
2022/02/11 11:10:30;;;;;;;;;;;;;;;;;;5080939;28;19912;-56
2022/02/11 11:12:56;;;;;;;;;;;;;;;;;;5086820;28;20403;-53
2022/02/11 11:15:22;;;;;;;;;;;;;;;;;;5088148;28;19908;-54
2022/02/11 11:17:49;;;;;;;;;;;;;;;;;;5080087;28;19947;-54
2022/02/11 11:20:15;;;;;;;;;;;;;;;;;;5091105;28;19915;-53
2022/02/11 11:22:41;;;;;;;;;;;;;;;;;;5083618;28;19908;-56
2022/02/11 11:25:08;;;;;;;;;;;;;;;;;;5077221;28;19957;-56
2022/02/11 11:27:34;;;;;;;;;;;;;;;;;;5094688;28;19904;-56
2022/02/11 11:30:00;;;;;;;;;;;;;;;;;;5093860;28;20015;-55
2022/02/11 11:32:25;;;;;;;;;;;;;;;;;;5090313;28;19935;-55
2022/02/11 11:34:51;;;;;;;;;;;;;;;;;;5074332;28;20307;-56
2022/02/11 11:37:19;;;;;;;;;;;;;;;;;;5074880;28;19904;-57
2022/02/11 11:39:45;;;;;;;;;;;;;;;;;;5073851;28;20399;-56
2022/02/11 11:42:11;;;;;;;;;;;;;;;;;;5074184;28;19908;-52
2022/02/11 11:44:37;;;;;;;;;;;;;;;;;;5074251;28;19954;-54
2022/02/11 11:47:02;;;;;;;;;;;;;;;;;;5074087;28;19905;-56
2022/02/11 11:49:28;;;;;;;;;;;;;;;;;;5079724;28;19908;-54
2022/02/11 11:51:54;;;;;;;;;;;;;;;;;;5093874;28;19957;-57
2022/02/11 11:54:21;;;;;;;;;;;;;;;;;;5097032;28;19908;-55
2022/02/11 11:56:47;;;;;;;;;;;;;;;;;;5094113;28;20342;-56
2022/02/11 11:59:14;;;;;;;;;;;;;;;;;;5084357;28;19909;-54
2022/02/11 12:01:39;;;;;;;;;;;;;;;;;;5073792;28;19958;-56
2022/02/11 12:04:05;;;;;;;;;;;;;;;;;;5073855;28;19904;-56
2022/02/11 12:06:31;;;;;;;;;;;;;;;;;;5087168;28;19908;-56
2022/02/11 12:08:57;;;;;;;;;;;;;;;;;;5073111;28;20278;-56
2022/02/11 12:11:23;;;;;;;;;;;;;;;;;;5103590;28;19915;-54
2022/02/11 12:13:49;;;;;;;;;;;;;;;;;;5104220;28;19912;-56
2022/02/11 12:16:15;;;;;;;;;;;;;;;;;;5111189;28;20365;-55
2022/02/11 12:18:46;;;;;;;;;;;;;;;;;;5103281;28;20377;-55
2022/02/11 12:21:12;;;;;;;;;;;;;;;;;;5091900;28;19957;-56
2022/02/11 12:29:07;;;;;;;;;;;;;;;;;;5092993;28;19906;-55
2022/02/11 12:31:33;;;;;;;;;;;;;;;;;;5093627;28;19908;-56
2022/02/11 12:33:59;;;;;;;;;;;;;;;;;;5076283;28;19922;-56
2022/02/11 12:36:25;;;;;;;;;;;;;;;;;;5073179;28;20045;-57
2022/02/11 12:38:50;;;;;;;;;;;;;;;;;;5072619;28;20346;-55
2022/02/11 12:41:16;;;;;;;;;;;;;;;;;;5073167;28;19999;-57
2022/02/11 12:43:43;;;;;;;;;;;;;;;;;;5072906;28;19907;-53
2022/02/11 12:46:09;;;;;;;;;;;;;;;;;;5078521;28;19915;-56
2022/02/11 12:48:38;;;;;;;;;;;;;;;;;;5090669;28;19904;-55
2022/02/11 12:51:04;;;;;;;;;;;;;;;;;;5093130;28;20349;-55
2022/02/11 12:53:30;;;;;;;;;;;;;;;;;;5098425;28;19951;-56
2022/02/11 12:55:58;;;;;;;;;;;;;;;;;;5113445;28;19949;-55
2022/02/11 12:58:24;;;;;;;;;;;;;;;;;;5112602;28;19903;-52
2022/02/11 13:00:50;;;;;;;;;;;;;;;;;;5096983;28;19957;-54
2022/02/11 13:03:16;;;;;;;;;;;;;;;;;;5093158;28;19904;-52
2022/02/11 13:05:43;;;;;;;;;;;;;;;;;;5092920;28;20254;-52
2022/02/11 13:08:09;;;;;;;;;;;;;;;;;;5092175;28;19914;-54
2022/02/11 13:10:35;;;;;;;;;;;;;;;;;;5092640;28;20014;-55
2022/02/11 13:13:01;;;;;;;;;;;;;;;;;;5092320;28;19923;-53
2022/02/11 13:15:28;;;;;;;;;;;;;;;;;;5092633;28;20381;-53
2022/02/11 13:17:54;;;;;;;;;;;;;;;;;;5092248;28;20277;-53
2022/02/11 13:20:20;;;;;;;;;;;;;;;;;;5093002;28;19930;-52
2022/02/11 13:22:45;;;;;;;;;;;;;;;;;;5092666;28;20281;-54
2022/02/11 13:25:11;;;;;;;;;;;;;;;;;;5092811;28;20323;-54
2022/02/11 13:27:37;;;;;;;;;;;;;;;;;;5085591;28;19909;-54
2022/02/11 13:30:03;;;;;;;;;;;;;;;;;;5072031;28;19915;-53
2022/02/11 13:32:29;;;;;;;;;;;;;;;;;;5072550;28;19912;-54
2022/02/11 13:34:55;;;;;;;;;;;;;;;;;;5072662;28;19912;-55
2022/02/11 13:37:21;;;;;;;;;;;;;;;;;;5072385;28;19967;-54
2022/02/11 13:39:46;;;;;;;;;;;;;;;;;;5071731;28;19991;-55
2022/02/11 13:42:12;;;;;;;;;;;;;;;;;;5077811;28;19977;-55
2022/02/11 13:44:38;;;;;;;;;;;;;;;;;;5092326;28;20273;-55
2022/02/11 13:47:04;;;;;;;;;;;;;;;;;;5092558;28;19910;-55
2022/02/11 13:49:30;;;;;;;;;;;;;;;;;;5091821;28;19904;-55
2022/02/11 13:53:01;;;;;;;;;;;;;;;;;;5092433;28;19931;-56
2022/02/11 13:54:42;;;;;;;;;;;;;;;;;;5107964;28;20410;-56
2022/02/11 13:57:07;;;;;;;;;;;;;;;;;;5095465;28;19942;-55
2022/02/11 13:59:33;;;;;;;;;;;;;;;;;;5079615;28;19923;-52
2022/02/11 14:01:59;;;;;;;;;;;;;;;;;;5092459;28;19974;-54
2022/02/11 14:04:25;;;;;;;;;;;;;;;;;;5082990;28;19912;-55
2022/02/11 14:06:51;;;;;;;;;;;;;;;;;;5075255;28;20263;-51
2022/02/11 14:09:17;;;;;;;;;;;;;;;;;;5071590;28;20053;-54
2022/02/11 14:11:43;;;;;;;;;;;;;;;;;;5072160;28;19912;-55
2022/02/11 14:14:09;;;;;;;;;;;;;;;;;;5072227;28;19951;-56
2022/02/11 14:16:35;;;;;;;;;;;;;;;;;;5072127;28;19994;-56
2022/02/11 14:19:01;;;;;;;;;;;;;;;;;;5071588;28;19914;-55
2022/02/11 14:21:27;;;;;;;;;;;;;;;;;;5071998;28;19904;-53
2022/02/11 14:23:53;;;;;;;;;;;;;;;;;;5071769;28;19912;-55
2022/02/11 14:26:19;;;;;;;;;;;;;;;;;;5071902;28;19915;-54
2022/02/11 14:28:44;;;;;;;;;;;;;;;;;;5070427;28;19999;-56
2022/02/11 14:31:10;;;;;;;;;;;;;;;;;;5071902;28;19956;-53
2022/02/11 14:33:36;;;;;;;;;;;;;;;;;;5092058;28;20371;-55
2022/02/11 14:36:02;;;;;;;;;;;;;;;;;;5092226;28;19916;-55
2022/02/11 14:38:28;;;;;;;;;;;;;;;;;;5091199;28;19954;-56
2022/02/11 14:43:38;;;;;;;;;;;;;;;;;;5095414;28;20365;-54
2022/02/11 14:46:05;;;;;;;;;;;;;;;;;;5083340;28;19908;-52
2022/02/11 14:48:30;;;;;;;;;;;;;;;;;;5074359;28;19915;-55
2022/02/11 14:50:56;;;;;;;;;;;;;;;;;;5074935;28;19920;-53
2022/02/11 14:53:22;;;;;;;;;;;;;;;;;;5083907;28;20319;-56
2022/02/11 14:55:48;;;;;;;;;;;;;;;;;;5115960;28;19911;-56
2022/02/11 14:58:15;;;;;;;;;;;;;;;;;;5115115;28;19998;-56
2022/02/11 15:00:41;;;;;;;;;;;;;;;;;;5100121;28;19982;-55
2022/02/11 15:03:08;;;;;;;;;;;;;;;;;;5095088;28;19923;-54
2022/02/11 15:05:34;;;;;;;;;;;;;;;;;;5095120;28;19905;-52
2022/02/11 15:07:59;;;;;;;;;;;;;;;;;;5094565;28;19911;-52
2022/02/11 15:10:26;;;;;;;;;;;;;;;;;;5095229;28;19947;-55
2022/02/11 15:12:52;;;;;;;;;;;;;;;;;;5091451;28;19957;-53
2022/02/11 15:15:18;;;;;;;;;;;;;;;;;;5080196;28;19912;-54
2022/02/11 15:17:45;;;;;;;;;;;;;;;;;;5084103;28;19908;-49
2022/02/11 15:20:11;;;;;;;;;;;;;;;;;;5079654;28;19974;-56
2022/02/11 15:22:36;;;;;;;;;;;;;;;;;;5086091;28;19904;-56
2022/02/11 15:25:02;;;;;;;;;;;;;;;;;;5081022;28;19915;-55
2022/02/11 15:27:28;;;;;;;;;;;;;;;;;;5099792;28;20365;-52
2022/02/11 15:29:54;;;;;;;;;;;;;;;;;;5084522;28;20373;-54
2022/02/11 15:32:20;;;;;;;;;;;;;;;;;;5079764;28;19916;-53
2022/02/11 15:34:46;;;;;;;;;;;;;;;;;;5078481;28;19917;-54
2022/02/11 15:37:12;;;;;;;;;;;;;;;;;;5084079;28;19908;-52
2022/02/11 15:39:39;;;;;;;;;;;;;;;;;;5086374;28;19915;-53
2022/02/11 15:42:05;;;;;;;;;;;;;;;;;;5083808;28;20196;-52
2022/02/11 15:44:31;;;;;;;;;;;;;;;;;;5075496;28;20369;-56
2022/02/11 15:46:57;;;;;;;;;;;;;;;;;;5078251;28;19908;-53
2022/02/11 15:49:23;;;;;;;;;;;;;;;;;;5081577;28;19998;-55
2022/02/11 15:51:49;;;;;;;;;;;;;;;;;;5075828;28;20015;-53
2022/02/11 15:54:14;;;;;;;;;;;;;;;;;;5098764;28;19937;-52
2022/02/11 15:56:40;;;;;;;;;;;;;;;;;;5087263;28;19908;-53
2022/02/11 15:59:06;;;;;;;;;;;;;;;;;;5081838;28;19911;-55
2022/02/11 16:01:32;;;;;;;;;;;;;;;;;;5082117;28;19908;-54
2022/02/11 16:04:00;;;;;;;;;;;;;;;;;;5085214;28;19912;-53
2022/02/11 16:06:25;;;;;;;;;;;;;;;;;;5081525;28;19916;-55
2022/02/11 16:08:51;;;;;;;;;;;;;;;;;;5089275;28;19908;-55
2022/02/11 16:11:17;;;;;;;;;;;;;;;;;;5090067;28;20353;-55
2022/02/11 16:13:43;;;;;;;;;;;;;;;;;;5085800;28;19960;-53
2022/02/11 16:16:09;;;;;;;;;;;;;;;;;;5080822;28;19912;-53
2022/02/11 16:18:35;;;;;;;;;;;;;;;;;;5088869;28;19991;-54
2022/02/11 16:21:01;;;;;;;;;;;;;;;;;;5078004;28;19908;-54
2022/02/11 16:23:28;;;;;;;;;;;;;;;;;;5084415;28;19908;-53
2022/02/11 16:25:54;;;;;;;;;;;;;;;;;;5087714;28;20285;-54
2022/02/11 16:28:20;;;;;;;;;;;;;;;;;;5082630;28;19907;-52
2022/02/11 16:30:47;;;;;;;;;;;;;;;;;;5073042;28;19970;-53
2022/02/11 16:33:13;;;;;;;;;;;;;;;;;;5075564;28;20246;-56
2022/02/11 16:35:38;;;;;;;;;;;;;;;;;;5076682;28;19936;-55
2022/02/11 16:38:04;;;;;;;;;;;;;;;;;;5079448;28;20305;-56
2022/02/11 16:40:30;;;;;;;;;;;;;;;;;;5076628;28;19908;-55
2022/02/11 16:42:56;;;;;;;;;;;;;;;;;;5082127;28;20031;-55
2022/02/11 16:45:23;;;;;;;;;;;;;;;;;;5087802;28;19951;-56
2022/02/11 16:47:49;;;;;;;;;;;;;;;;;;5081725;28;19947;-55
2022/02/11 16:50:15;;;;;;;;;;;;;;;;;;5092324;28;19961;-55
2022/02/11 16:52:41;;;;;;;;;;;;;;;;;;5092568;28;19904;-54
2022/02/11 16:55:06;;;;;;;;;;;;;;;;;;5073501;28;20016;-56
2022/02/11 16:57:32;;;;;;;;;;;;;;;;;;5076184;28;19981;-54
2022/02/11 16:59:58;;;;;;;;;;;;;;;;;;5074222;28;19930;-56
2022/02/11 17:02:24;;;;;;;;;;;;;;;;;;5073339;28;19912;-56
2022/02/11 17:04:50;;;;;;;;;;;;;;;;;;5077245;28;19907;-53
2022/02/11 17:07:16;;;;;;;;;;;;;;;;;;5077024;28;19949;-55
2022/02/11 17:09:42;;;;;;;;;;;;;;;;;;5079409;28;19934;-50
2022/02/11 17:12:07;;;;;;;;;;;;;;;;;;5079373;28;20337;-51
2022/02/11 17:14:33;;;;;;;;;;;;;;;;;;5073781;28;19965;-56
2022/02/11 17:16:59;;;;;;;;;;;;;;;;;;5070710;28;19916;-52
2022/02/11 17:19:25;;;;;;;;;;;;;;;;;;5072138;28;20262;-54
2022/02/11 17:21:51;;;;;;;;;;;;;;;;;;5078079;28;19912;-56
2022/02/11 17:24:17;;;;;;;;;;;;;;;;;;5077680;28;20281;-53
2022/02/11 17:26:43;;;;;;;;;;;;;;;;;;5074697;28;19956;-53
2022/02/11 17:29:12;;;;;;;;;;;;;;;;;;5073280;28;19930;-54
2022/02/11 17:31:37;;;;;;;;;;;;;;;;;;5071667;28;19920;-55
2022/02/11 17:34:03;;;;;;;;;;;;;;;;;;5072689;28;19915;-55
2022/02/11 17:36:29;;;;;;;;;;;;;;;;;;5084928;28;19912;-55
2022/02/11 17:38:55;;;;;;;;;;;;;;;;;;5075598;28;19947;-54
2022/02/11 17:41:24;;;;;;;;;;;;;;;;;;5074179;28;19966;-55
2022/02/11 17:43:50;;;;;;;;;;;;;;;;;;5082079;28;20049;-55
2022/02/11 17:46:16;;;;;;;;;;;;;;;;;;5072620;28;20399;-54
2022/02/11 17:48:42;;;;;;;;;;;;;;;;;;5071241;28;19955;-54
2022/02/11 17:51:07;;;;;;;;;;;;;;;;;;5069557;28;19916;-50
2022/02/11 17:53:33;;;;;;;;;;;;;;;;;;5076460;28;19908;-56
2022/02/11 17:55:59;;;;;;;;;;;;;;;;;;5079114;28;20155;-54
2022/02/11 17:58:28;;;;;;;;;;;;;;;;;;5071241;28;19912;-54
2022/02/11 18:00:54;;;;;;;;;;;;;;;;;;5070059;28;20385;-56
2022/02/11 18:03:20;;;;;;;;;;;;;;;;;;5072940;28;19955;-56
2022/02/11 18:05:47;;;;;;;;;;;;;;;;;;5072875;28;19908;-56
2022/02/11 18:08:13;;;;;;;;;;;;;;;;;;5068780;28;19908;-53
2022/02/11 18:10:39;;;;;;;;;;;;;;;;;;5069147;28;19923;-53
2022/02/11 18:13:05;;;;;;;;;;;;;;;;;;5069279;28;19912;-55
2022/02/11 18:15:31;;;;;;;;;;;;;;;;;;5070949;28;19913;-54
2022/02/11 18:17:57;;;;;;;;;;;;;;;;;;5077316;28;19909;-56
2022/02/11 18:20:26;;;;;;;;;;;;;;;;;;5075820;28;19912;-54
2022/02/11 18:22:52;;;;;;;;;;;;;;;;;;5082100;28;20290;-54
2022/02/11 18:25:18;;;;;;;;;;;;;;;;;;5084408;28;19917;-54
2022/02/11 18:27:44;;;;;;;;;;;;;;;;;;5076185;28;19909;-56
2022/02/11 18:30:10;;;;;;;;;;;;;;;;;;5079514;28;20342;-55
2022/02/11 18:32:36;;;;;;;;;;;;;;;;;;5085612;28;19908;-56
2022/02/11 18:35:02;;;;;;;;;;;;;;;;;;5081212;28;19912;-55
2022/02/11 18:37:28;;;;;;;;;;;;;;;;;;5081799;28;19908;-56
2022/02/11 18:39:54;;;;;;;;;;;;;;;;;;5084495;28;19908;-55
2022/02/11 18:42:20;;;;;;;;;;;;;;;;;;5079450;28;19948;-56
2022/02/11 18:44:46;;;;;;;;;;;;;;;;;;5088261;28;19938;-56
2022/02/11 18:47:12;;;;;;;;;;;;;;;;;;5093925;28;19975;-54
2022/02/11 18:49:37;;;;;;;;;;;;;;;;;;5085595;28;19909;-57
2022/02/11 18:52:03;;;;;;;;;;;;;;;;;;5091651;28;20332;-55
2022/02/11 18:54:29;;;;;;;;;;;;;;;;;;5097259;28;20010;-57
2022/02/11 18:56:55;;;;;;;;;;;;;;;;;;5084042;28;19909;-57
2022/02/11 19:02:06;;;;;;;;;;;;;;;;;;5089563;28;20371;-54
2022/02/11 19:04:32;;;;;;;;;;;;;;;;;;5091929;28;20003;-57
2022/02/11 19:06:58;;;;;;;;;;;;;;;;;;5090301;28;19939;-58
2022/02/11 19:09:23;;;;;;;;;;;;;;;;;;5089976;28;19909;-55
2022/02/11 19:11:49;;;;;;;;;;;;;;;;;;5082223;28;19916;-56
2022/02/11 19:14:16;;;;;;;;;;;;;;;;;;5083340;28;19915;-56
2022/02/11 19:16:42;;;;;;;;;;;;;;;;;;5089916;28;19908;-54
2022/02/11 19:19:08;;;;;;;;;;;;;;;;;;5110704;28;19923;-55
2022/02/11 19:21:34;;;;;;;;;;;;;;;;;;5092925;28;19915;-55
2022/02/11 19:24:00;;;;;;;;;;;;;;;;;;5089054;28;19923;-56
2022/02/11 19:26:27;;;;;;;;;;;;;;;;;;5085321;28;19910;-52
2022/02/11 19:28:53;;;;;;;;;;;;;;;;;;5091219;28;19915;-55
2022/02/11 19:31:19;;;;;;;;;;;;;;;;;;5081404;28;20242;-52
2022/02/11 19:33:45;;;;;;;;;;;;;;;;;;5074600;28;20021;-55
2022/02/11 19:36:11;;;;;;;;;;;;;;;;;;5100587;28;20352;-53
2022/02/11 19:38:37;;;;;;;;;;;;;;;;;;5074220;28;19970;-56
2022/02/11 19:41:02;;;;;;;;;;;;;;;;;;5077941;28;19912;-53
2022/02/11 19:43:30;;;;;;;;;;;;;;;;;;5072068;28;19919;-55
2022/02/11 19:45:56;;;;;;;;;;;;;;;;;;5072540;28;19921;-55
2022/02/11 19:48:22;;;;;;;;;;;;;;;;;;5086572;28;20370;-54
2022/02/11 19:50:48;;;;;;;;;;;;;;;;;;5088405;28;20298;-54
2022/02/11 19:53:14;;;;;;;;;;;;;;;;;;5081358;28;19912;-57
2022/02/11 19:55:40;;;;;;;;;;;;;;;;;;5090235;28;19912;-52
2022/02/11 19:58:06;;;;;;;;;;;;;;;;;;5070852;28;19922;-56
2022/02/11 20:00:32;;;;;;;;;;;;;;;;;;5076974;28;20013;-56
2022/02/11 20:02:58;;;;;;;;;;;;;;;;;;5071766;28;20357;-57
2022/02/11 20:05:24;;;;;;;;;;;;;;;;;;5074179;28;19912;-55
2022/02/11 20:07:51;;;;;;;;;;;;;;;;;;5071228;28;20361;-57
2022/02/11 20:10:17;;;;;;;;;;;;;;;;;;5071586;28;19920;-55
2022/02/11 20:12:42;;;;;;;;;;;;;;;;;;5070856;28;19920;-57
2022/02/11 20:15:08;;;;;;;;;;;;;;;;;;5085459;28;19917;-54
2022/02/11 20:17:34;;;;;;;;;;;;;;;;;;5071189;28;19939;-54
2022/02/11 20:20:00;;;;;;;;;;;;;;;;;;5077130;28;19908;-55
2022/02/11 20:22:26;;;;;;;;;;;;;;;;;;5070956;28;20247;-55
2022/02/11 20:24:52;;;;;;;;;;;;;;;;;;5070714;28;19905;-55
2022/02/11 20:27:18;;;;;;;;;;;;;;;;;;5070967;28;20218;-55
2022/02/11 20:29:43;;;;;;;;;;;;;;;;;;5068336;28;19912;-56
2022/02/11 20:32:12;;;;;;;;;;;;;;;;;;5077487;28;19908;-56
2022/02/11 20:34:38;;;;;;;;;;;;;;;;;;5078279;28;19916;-55
2022/02/11 20:37:04;;;;;;;;;;;;;;;;;;5070496;28;20334;-58